FW3129 Weather Reports


Display with metric or nautical units.
time (UTC)temp
F
wind
direction
speed
MPH
gust
MPH
rain 1hr
in
rain 24hr
in
rain mn
in
humidity
%
barometer
mb
20200402073024 69 67 0.0 1.0 0.00 0.06 0.00 76 1012.1
20200402071521 69 0 0.0 1.0 0.00 0.06 0.00 76 1012.1
20200402070107 69 0 0.0 2.0 0.00 0.06 0.00 76 1011.9
20200402064514 69 0 0.0 0.0 0.00 0.06 0.00 75 1012.1
20200402063033 70 0 0.0 1.0 0.00 0.06 0.00 74 1012.2
20200402061509 71 0 0.0 2.0 0.00 0.06 0.00 73 1012.2
20200402060037 71 0 0.0 1.0 0.00 0.06 0.00 73 1012.4
20200402054517 71 0 0.0 1.0 0.00 0.06 0.00 73 1012.4
20200402053028 72 0 0.0 2.0 0.00 0.06 0.00 72 1012.4
20200402051523 72 95 1.0 4.0 0.00 0.06 0.00 72 1012.5
20200402050101 72 59 0.0 4.0 0.00 0.06 0.00 73 1012.5
20200402044519 72 0 0.0 3.0 0.00 0.06 0.00 72 1012.4
20200402043016 72 77 0.0 2.0 0.00 0.06 0.00 72 1012.5
20200402041520 73 0 0.0 3.0 0.00 0.06 0.00 71 1012.5
20200402040013 73 0 0.0 4.0 0.00 0.06 0.00 72 1012.5
20200402034539 73 0 0.0 2.0 0.00 0.06 0.06 72 1012.5
20200402033010 73 0 0.0 2.0 0.00 0.06 0.06 71 1012.4
20200402031510 73 0 0.0 0.0 0.00 0.06 0.06 71 1012.3
20200402030018 73 58 1.0 5.0 0.00 0.06 0.06 71 1012.1
20200402024544 73 162 1.0 4.0 0.00 0.06 0.06 70 1011.8
20200402023010 73 56 0.0 3.0 0.00 0.06 0.06 68 1011.7
20200402021542 73 75 1.0 2.0 0.00 0.06 0.06 69 1011.5
20200402020023 73 87 1.0 4.0 0.00 0.06 0.06 70 1011.4
20200402014509 74 96 0.0 5.0 0.00 0.06 0.06 70 1011.4
20200402013029 74 75 2.0 5.0 0.00 0.06 0.06 68 1011.1
20200402011510 74 0 0.0 3.0 0.00 0.06 0.06 70 1010.9
20200402010009 74 55 1.0 3.0 0.00 0.06 0.06 70 1010.8
20200402004527 74 113 1.0 4.0 0.00 0.06 0.06 70 1010.7
20200402003028 74 88 3.0 7.0 0.00 0.06 0.06 69 1010.6
20200402001519 75 47 4.0 13.0 0.00 0.06 0.06 68 1010.3
20200402000021 76 49 2.0 8.0 0.00 0.06 0.06 68 1009.9
20200401234529 77 72 3.0 12.0 0.00 0.06 0.06 66 1009.5
20200401233020 79 56 2.0 10.0 0.00 0.06 0.06 64 1009.3
20200401231518 83 47 2.0 4.0 0.00 0.06 0.06 39 1009.2
20200401230025 84 60 2.0 7.0 0.00 0.06 0.06 37 1009.0
20200401224516 85 4 1.0 5.0 0.00 0.06 0.06 36 1008.8
20200401223040 85 53 1.0 6.0 0.00 0.06 0.06 37 1008.9
20200401221510 86 302 2.0 9.0 0.00 0.06 0.06 37 1008.7
20200401220019 86 25 1.0 11.0 0.00 0.06 0.06 37 1008.5
20200401214513 87 325 4.0 8.0 0.00 0.06 0.06 36 1008.5
20200401213029 86 319 3.0 13.0 0.00 0.06 0.06 36 1008.5
20200401211551 87 270 1.0 8.0 0.00 0.06 0.06 35 1008.3
20200401210020 87 60 3.0 10.0 0.00 0.06 0.06 34 1008.3
20200401204517 86 1 4.0 12.0 0.00 0.06 0.06 35 1008.2
20200401203032 87 330 4.0 9.0 0.00 0.06 0.06 35 1008.2
20200401201526 87 326 4.0 12.0 0.00 0.06 0.06 36 1008.3
20200401200044 86 333 4.0 10.0 0.00 0.06 0.06 38 1008.3
20200401194523 86 307 5.0 12.0 0.00 0.06 0.06 38 1008.3
20200401193033 86 321 5.0 12.0 0.00 0.06 0.06 38 1008.4
20200401191540 85 271 2.0 15.0 0.00 0.06 0.06 41 1008.3
20200401190032 84 317 7.0 17.0 0.00 0.06 0.06 43 1008.4
20200401184550 84 321 4.0 12.0 0.00 0.06 0.06 48 1008.5
20200401183012 84 8 5.0 16.0 0.00 0.06 0.06 50 1008.6
20200401181527 83 328 7.0 15.0 0.00 0.06 0.06 50 1008.7
20200401180019 83 353 6.0 14.0 0.00 0.06 0.06 53 1008.9
20200401174540 82 290 6.0 15.0 0.00 0.06 0.06 58 1009.0
20200401173022 82 71 5.0 14.0 0.00 0.06 0.06 62 1009.1
20200401171549 81 353 6.0 18.0 0.00 0.06 0.06 64 1009.3
20200401170020 81 321 7.0 17.0 0.00 0.06 0.06 66 1009.4
20200401164525 81 18 7.0 15.0 0.00 0.06 0.06 67 1009.5
20200401163012 81 323 7.0 14.0 0.00 0.06 0.06 68 1009.6
20200401161517 80 11 7.0 15.0 0.00 0.06 0.06 68 1009.7
20200401160053 79 280 4.0 11.0 0.00 0.06 0.06 74 1009.7
20200401154528 79 333 3.0 12.0 0.00 0.06 0.06 76 1009.9
20200401153028 78 308 4.0 11.0 0.00 0.06 0.06 78 1009.7
20200401151600 77 332 3.0 11.0 0.00 0.06 0.06 82 1009.8
20200401150022 75 53 4.0 10.0 0.02 0.06 0.06 83 1009.8
20200401144552 73 327 4.0 7.0 0.05 0.06 0.06 82 1009.9
20200401143024 72 333 2.0 5.0 0.05 0.06 0.06 82 1009.8
20200401141530 72 311 1.0 5.0 0.05 0.06 0.06 83 1009.7
20200401140015 74 340 5.0 17.0 0.02 0.03 0.03 83 1009.8
20200401134547 75 309 3.0 7.0 0.00 0.01 0.01 83 1009.5
20200401133037 74 295 3.0 9.0 0.00 0.01 0.01 83 1009.3
20200401131516 74 311 1.0 4.0 0.00 0.01 0.01 83 1009.1
20200401130024 73 326 3.0 6.0 0.00 0.01 0.01 83 1009.2
20200401124516 73 311 2.0 4.0 0.00 0.01 0.01 83 1009.0
20200401123039 73 307 2.0 5.0 0.00 0.01 0.01 83 1008.6
20200401121518 72 331 3.0 9.0 0.00 0.01 0.01 83 1008.2
20200401120023 72 293 3.0 10.0 0.00 0.01 0.01 82 1008.5
20200401114521 72 333 2.0 7.0 0.00 0.01 0.01 82 1008.4
20200401113018 72 352 4.0 9.0 0.01 0.01 0.01 82 1008.5
20200401111542 72 334 5.0 11.0 0.01 0.01 0.01 83 1008.4
20200401110012 73 281 5.0 10.0 0.01 0.01 0.01 83 1008.3
20200401104511 74 276 5.0 14.0 0.01 0.01 0.01 83 1008.1
20200401103012 76 327 4.0 9.0 0.00 0.00 0.00 82 1007.8
20200401101531 76 274 3.0 10.0 0.00 0.00 0.00 82 1007.3
20200401100034 76 275 4.0 9.0 0.00 0.00 0.00 82 1007.4
20200401094539 75 268 4.0 8.0 0.00 0.00 0.00 82 1007.2
20200401093101 76 280 3.0 10.0 0.00 0.00 0.00 82 1007.0
20200401091525 75 292 3.0 7.0 0.00 0.00 0.00 83 1006.9
20200401090051 76 258 2.0 8.0 0.00 0.00 0.00 83 1006.9
20200401084516 76 233 3.0 9.0 0.00 0.00 0.00 83 1007.0
20200401083032 76 285 4.0 10.0 0.00 0.00 0.00 83 1006.9
20200401081514 76 322 3.0 10.0 0.00 0.00 0.00 83 1006.6
20200401080110 76 272 3.0 6.0 0.00 0.00 0.00 83 1006.9
20200401074609 76 240 3.0 10.0 0.00 0.00 0.00 83 1007.1